createdAt,value
2022-11-12T00:02:41.651Z,23.77
2022-11-12T00:06:22.133Z,22.43
2022-11-12T00:10:02.814Z,23.57
2022-11-12T00:13:43.331Z,17.47
2022-11-12T00:17:25.417Z,19.30
2022-11-12T00:21:05.860Z,21.27
2022-11-12T00:24:46.659Z,20.70
2022-11-12T00:28:27.235Z,23.20
2022-11-12T00:32:07.897Z,21.57
2022-11-12T00:35:49.733Z,22.07
2022-11-12T00:39:30.334Z,17.83
2022-11-12T00:43:11.229Z,18.43
2022-11-12T00:46:51.787Z,16.10
2022-11-12T00:50:32.538Z,17.27
2022-11-12T00:54:14.165Z,13.30
2022-11-12T00:57:54.773Z,11.73
2022-11-12T01:01:35.375Z,16.30
2022-11-12T01:05:16.030Z,12.47
2022-11-12T01:08:57.079Z,11.90
2022-11-12T01:12:39.555Z,15.30
2022-11-12T01:16:21.381Z,10.20
2022-11-12T01:20:02.085Z,10.97
2022-11-12T01:23:43.635Z,11.57
2022-11-12T01:27:24.149Z,10.07
2022-11-12T01:31:13.553Z,9.90
2022-11-12T01:34:53.820Z,9.83
2022-11-12T01:38:35.400Z,12.63
2022-11-12T01:42:16.108Z,8.63
2022-11-12T01:45:56.754Z,8.87
2022-11-12T01:49:55.099Z,9.50
2022-11-12T01:53:43.922Z,10.33
2022-11-12T01:57:34.438Z,8.90
2022-11-12T02:01:15.052Z,7.63
2022-11-12T02:04:56.997Z,8.43
2022-11-12T02:08:39.803Z,8.30
2022-11-12T02:12:34.080Z,12.37
2022-11-12T02:16:14.589Z,9.87
2022-11-12T02:20:00.110Z,9.83
2022-11-12T02:23:41.932Z,13.67
2022-11-12T02:27:24.100Z,8.33
2022-11-12T02:31:04.710Z,7.97
2022-11-12T02:34:44.726Z,10.07
2022-11-12T02:38:25.141Z,9.97
2022-11-12T02:42:06.974Z,13.47
2022-11-12T02:45:47.194Z,17.57
2022-11-12T02:49:27.563Z,14.67
2022-11-12T02:53:07.837Z,12.50
2022-11-12T02:56:48.263Z,14.47
2022-11-12T03:00:29.801Z,13.63
2022-11-12T03:04:10.243Z,11.63
2022-11-12T03:07:50.677Z,11.93
2022-11-12T03:11:31.092Z,16.07
2022-11-12T03:15:11.633Z,16.10
2022-11-12T03:18:53.617Z,16.60
2022-11-12T03:22:34.238Z,12.27
2022-11-12T03:26:14.592Z,12.03
2022-11-12T03:29:54.861Z,7.33
2022-11-12T03:33:34.800Z,6.87
2022-11-12T03:37:16.178Z,8.73
2022-11-12T03:40:56.424Z,6.13
2022-11-12T03:44:36.767Z,6.10
2022-11-12T03:48:16.930Z,6.30
2022-11-12T03:51:57.429Z,6.67
2022-11-12T03:55:39.184Z,8.33
2022-11-12T03:59:19.430Z,7.27
2022-11-12T04:03:00.767Z,7.17
2022-11-12T04:06:58.288Z,7.03
2022-11-12T04:10:40.289Z,4.47
2022-11-12T04:14:20.998Z,6.90
2022-11-12T04:18:18.701Z,9.37
2022-11-12T04:22:02.529Z,10.77
2022-11-12T04:26:02.438Z,7.67
2022-11-12T04:30:00.858Z,7.03
2022-11-12T04:33:41.381Z,7.43
2022-11-12T04:37:23.616Z,7.13
2022-11-12T04:41:22.749Z,6.70
2022-11-12T04:45:04.048Z,8.00
2022-11-12T04:48:44.789Z,8.43
2022-11-12T04:52:25.177Z,6.87
2022-11-12T04:56:07.846Z,7.97
2022-11-12T04:59:48.579Z,7.47
2022-11-12T05:03:28.786Z,6.97
2022-11-12T05:07:09.505Z,6.07
2022-11-12T05:10:50.052Z,9.60
2022-11-12T05:14:31.912Z,7.37
2022-11-12T05:18:12.384Z,6.97
2022-11-12T05:22:33.654Z,6.47
2022-11-12T05:26:15.223Z,6.87
2022-11-12T05:29:57.086Z,8.80
2022-11-12T05:33:37.427Z,7.50
2022-11-12T05:37:18.082Z,7.97
2022-11-12T05:40:58.199Z,10.33
2022-11-12T05:44:38.338Z,7.80
2022-11-12T05:48:24.289Z,10.70
2022-11-12T05:52:05.433Z,9.97
2022-11-12T05:55:46.009Z,8.63
2022-11-12T05:59:26.504Z,6.63
2022-11-12T06:03:06.603Z,7.17
2022-11-12T06:06:48.250Z,9.17
2022-11-12T06:10:29.073Z,9.10
2022-11-12T06:14:09.511Z,10.87
2022-11-12T06:17:50.110Z,10.87
2022-11-12T06:21:30.252Z,8.63
2022-11-12T06:25:12.449Z,7.10
2022-11-12T06:28:53.318Z,11.43
2022-11-12T06:32:34.072Z,7.33
2022-11-12T06:36:17.279Z,8.73
2022-11-12T06:39:57.898Z,8.50
2022-11-12T06:43:40.141Z,7.80
2022-11-12T06:47:20.523Z,7.43
2022-11-12T06:51:07.390Z,10.90
2022-11-12T06:54:47.956Z,7.30
2022-11-12T06:58:28.751Z,11.40
2022-11-12T07:02:14.678Z,8.57
2022-11-12T07:05:55.709Z,8.50
2022-11-12T07:09:36.201Z,21.30
2022-11-12T07:13:20.103Z,13.47
2022-11-12T07:17:01.863Z,9.07
2022-11-12T07:20:44.165Z,11.30
2022-11-12T07:24:24.576Z,11.00
2022-11-12T07:28:05.555Z,11.50
2022-11-12T07:31:46.309Z,12.90
2022-11-12T07:35:26.923Z,11.40
2022-11-12T07:39:09.566Z,10.73
2022-11-12T07:42:51.172Z,14.17
2022-11-12T07:46:31.639Z,15.37
2022-11-12T07:50:12.268Z,16.93
2022-11-12T07:53:59.323Z,17.40
2022-11-12T07:57:41.665Z,13.37
2022-11-12T08:01:29.625Z,13.60
2022-11-12T08:05:16.411Z,15.10
2022-11-12T08:09:01.505Z,22.73
2022-11-12T08:12:43.519Z,13.97
2022-11-12T08:16:23.591Z,17.30
2022-11-12T08:20:03.635Z,10.83
2022-11-12T08:23:43.558Z,14.37
2022-11-12T08:27:23.806Z,11.00
2022-11-12T08:31:07.974Z,10.63
2022-11-12T08:34:48.267Z,14.37
2022-11-12T08:38:28.867Z,13.80
2022-11-12T08:42:09.648Z,10.93
2022-11-12T08:45:50.204Z,11.03
2022-11-12T08:49:31.936Z,12.23
2022-11-12T08:53:14.876Z,12.60
2022-11-12T08:56:55.462Z,13.73
2022-11-12T09:00:37.687Z,12.27
2022-11-12T09:04:18.037Z,11.70
2022-11-12T09:08:01.268Z,10.18
2022-11-12T09:11:41.805Z,16.83
2022-11-12T09:15:38.990Z,24.52
2022-11-12T09:19:19.804Z,25.40
2022-11-12T09:23:03.458Z,16.23
2022-11-12T09:26:43.878Z,18.00
2022-11-12T09:30:24.445Z,12.63
2022-11-12T09:34:05.761Z,16.42
2022-11-12T09:37:46.231Z,12.85
2022-11-12T09:41:34.149Z,14.25
2022-11-12T09:45:26.136Z,12.00
2022-11-12T09:49:13.040Z,15.50
2022-11-12T09:53:01.726Z,14.00
2022-11-12T09:56:43.539Z,14.88
2022-11-12T10:00:24.394Z,13.57
2022-11-12T10:04:22.730Z,11.40
2022-11-12T10:08:12.339Z,13.20
2022-11-12T10:12:21.226Z,12.05
2022-11-12T10:16:35.211Z,13.32
2022-11-12T10:20:22.264Z,11.77
2022-11-12T10:24:04.402Z,12.52
2022-11-12T10:27:47.068Z,12.68
2022-11-12T10:31:27.510Z,11.65
2022-11-12T10:35:08.603Z,11.35
2022-11-12T10:39:00.801Z,10.40
2022-11-12T10:42:58.777Z,11.45
2022-11-12T10:46:39.561Z,14.82
2022-11-12T10:50:24.002Z,9.13
2022-11-12T10:54:28.845Z,11.15
2022-11-12T10:58:19.782Z,9.80
2022-11-12T11:02:02.112Z,11.70
2022-11-12T11:05:52.651Z,13.18
2022-11-12T11:09:34.066Z,12.07
2022-11-12T11:13:23.923Z,10.93
2022-11-12T11:17:09.257Z,7.75
2022-11-12T11:20:58.156Z,10.82
2022-11-12T11:24:45.996Z,8.73
2022-11-12T11:28:38.998Z,9.13
2022-11-12T11:32:37.653Z,11.35
2022-11-12T11:36:25.234Z,10.73
2022-11-12T11:40:13.915Z,9.23
2022-11-12T11:44:07.768Z,10.43
2022-11-12T11:48:02.804Z,10.23
2022-11-12T11:51:54.022Z,9.07
2022-11-12T11:55:54.350Z,8.32
2022-11-12T11:59:50.814Z,11.02
2022-11-12T12:03:34.844Z,11.60
2022-11-12T12:07:26.845Z,11.63
2022-11-12T12:11:14.868Z,8.20
2022-11-12T12:15:08.368Z,14.15
2022-11-12T12:18:54.325Z,7.97
2022-11-12T12:22:39.291Z,10.45
2022-11-12T12:26:25.065Z,8.02
2022-11-12T12:30:14.879Z,11.98
2022-11-12T12:33:59.466Z,10.48
2022-11-12T12:37:46.708Z,9.90
2022-11-12T12:41:31.856Z,8.68
2022-11-12T12:45:35.785Z,7.03
2022-11-12T12:49:19.807Z,8.85
2022-11-12T12:53:05.228Z,8.00
2022-11-12T12:56:49.416Z,7.95
2022-11-12T13:33:15.343Z,7.13
2022-11-12T13:42:31.739Z,7.93
2022-11-12T13:46:56.297Z,8.70
2022-11-12T13:50:40.489Z,5.75
2022-11-12T13:54:30.954Z,8.57
2022-11-12T13:58:20.248Z,8.98
2022-11-12T14:02:06.007Z,7.35
2022-11-12T14:05:50.190Z,11.23
2022-11-12T14:09:46.103Z,9.60
2022-11-12T14:13:50.168Z,7.68
2022-11-12T14:17:41.917Z,9.38
2022-11-12T14:21:22.805Z,8.55
2022-11-12T14:25:04.104Z,9.25
2022-11-12T14:28:44.549Z,9.63
2022-11-12T14:32:25.069Z,8.57
2022-11-12T14:36:13.096Z,10.00
2022-11-12T14:39:53.649Z,9.88
2022-11-12T14:43:37.714Z,9.10
2022-11-12T14:47:19.393Z,13.15
2022-11-12T14:51:04.278Z,12.30
2022-11-12T14:54:50.042Z,10.57
2022-11-12T14:58:31.989Z,8.93
2022-11-12T15:02:42.671Z,10.18
2022-11-12T15:06:21.996Z,8.18
2022-11-12T15:10:36.539Z,9.00
2022-11-12T15:14:24.032Z,8.73
2022-11-12T15:18:07.076Z,9.02
2022-11-12T15:21:49.854Z,9.27
2022-11-12T15:25:31.992Z,17.58
2022-11-12T15:29:34.807Z,12.88
2022-11-12T15:33:19.482Z,17.88
2022-11-12T15:37:03.017Z,12.93
2022-11-12T15:40:45.893Z,13.13
2022-11-12T15:44:26.794Z,14.23
2022-11-12T15:48:12.452Z,10.32
2022-11-12T15:51:52.812Z,14.20
2022-11-12T15:55:33.972Z,15.55
2022-11-12T15:59:17.492Z,12.43
2022-11-12T16:03:00.487Z,24.92
2022-11-12T16:06:42.283Z,32.95
2022-11-12T16:10:22.563Z,25.80
2022-11-12T16:14:03.201Z,20.23
2022-11-12T16:17:43.900Z,26.30
2022-11-12T16:21:24.404Z,22.67
2022-11-12T16:25:06.919Z,23.58
2022-11-12T16:28:47.343Z,31.02
2022-11-12T16:32:27.669Z,68.18
2022-11-12T16:36:14.861Z,37.45
2022-11-12T16:39:55.593Z,25.10
2022-11-12T16:43:37.190Z,18.23
2022-11-12T16:47:17.625Z,28.23
2022-11-12T16:51:00.099Z,36.87
2022-11-12T16:54:40.390Z,29.83
2022-11-12T16:58:20.911Z,30.25
2022-11-12T17:02:02.691Z,36.53
2022-11-12T17:05:42.876Z,38.87
2022-11-12T17:09:23.338Z,28.07
2022-11-12T17:13:03.532Z,18.37
2022-11-12T17:16:44.990Z,22.90
2022-11-12T17:20:27.069Z,14.57
2022-11-12T17:24:08.788Z,14.97
2022-11-12T17:27:49.513Z,12.43
2022-11-12T17:31:30.415Z,13.73
2022-11-12T17:35:10.669Z,13.77
2022-11-12T17:38:55.102Z,14.20
2022-11-12T17:42:35.367Z,18.13
2022-11-12T17:46:16.437Z,15.67
2022-11-12T17:49:57.192Z,16.60
2022-11-12T17:53:38.117Z,15.43
2022-11-12T17:57:19.777Z,14.47
2022-11-12T18:01:07.065Z,14.87
2022-11-12T18:04:47.595Z,16.07
2022-11-12T18:08:27.779Z,15.97
2022-11-12T18:12:08.189Z,15.13
2022-11-12T18:15:49.998Z,12.47
2022-11-12T18:19:30.710Z,15.17
2022-11-12T18:23:11.410Z,22.17
2022-11-12T18:26:51.691Z,20.60
2022-11-12T18:30:32.390Z,21.50
2022-11-12T18:34:15.925Z,22.73
2022-11-12T18:37:56.461Z,15.07
2022-11-12T18:41:37.265Z,17.47
2022-11-12T18:45:17.780Z,18.50
2022-11-12T18:48:58.183Z,17.93
2022-11-12T18:52:39.871Z,22.23
2022-11-12T18:56:22.127Z,18.43
2022-11-12T19:00:03.253Z,19.70
2022-11-12T19:03:44.394Z,31.93
2022-11-12T19:07:29.354Z,21.47
2022-11-12T19:11:15.344Z,17.43
2022-11-12T19:15:02.401Z,26.40
2022-11-12T19:18:44.270Z,22.30
2022-11-12T19:22:24.883Z,39.07
2022-11-12T19:26:07.114Z,36.50
2022-11-12T19:29:49.551Z,34.37
2022-11-12T19:33:32.662Z,37.03
2022-11-12T19:37:32.411Z,38.13
2022-11-12T19:41:19.886Z,37.67
2022-11-12T19:45:04.691Z,39.03
2022-11-12T19:48:46.947Z,39.13
2022-11-12T19:52:32.963Z,44.97
2022-11-12T19:56:17.644Z,42.90
2022-11-12T19:59:58.043Z,42.80
2022-11-12T20:03:40.040Z,47.50
2022-11-12T20:07:20.597Z,45.93
2022-11-12T20:11:02.143Z,45.27
2022-11-12T20:14:44.533Z,52.83
2022-11-12T20:18:25.647Z,48.70
2022-11-12T20:22:07.553Z,49.43
2022-11-12T20:25:47.738Z,69.90
2022-11-12T20:29:28.035Z,63.53
2022-11-12T20:33:08.312Z,64.53
2022-11-12T20:36:48.479Z,52.53
2022-11-12T20:40:31.724Z,49.83
2022-11-12T20:44:12.010Z,47.20
2022-11-12T20:47:52.199Z,47.55
2022-11-12T20:51:33.675Z,50.97
2022-11-12T20:55:14.107Z,54.80
2022-11-12T20:58:56.322Z,47.35
2022-11-12T21:02:36.975Z,49.75
2022-11-12T21:06:19.671Z,60.77
2022-11-12T21:09:59.953Z,52.25
2022-11-12T21:13:40.811Z,49.35
2022-11-12T21:17:22.539Z,45.05
2022-11-12T21:21:05.356Z,50.67
2022-11-12T21:24:46.055Z,52.00
2022-11-12T21:28:26.651Z,55.85
2022-11-12T21:32:07.587Z,66.40
2022-11-12T21:35:54.131Z,66.43
2022-11-12T21:39:34.545Z,54.80
2022-11-12T21:43:15.229Z,51.45
2022-11-12T21:46:55.871Z,60.67
2022-11-12T21:50:36.050Z,61.47
2022-11-12T21:54:17.833Z,64.70
2022-11-12T21:57:58.611Z,59.20
2022-11-12T22:01:40.538Z,66.50
2022-11-12T22:05:20.887Z,76.32
2022-11-12T22:09:01.370Z,59.50
2022-11-12T22:13:04.862Z,55.97
2022-11-12T22:16:44.200Z,52.92
2022-11-12T22:20:24.679Z,62.70
2022-11-12T22:24:05.665Z,72.70
2022-11-12T22:27:54.338Z,67.45
2022-11-12T22:31:44.157Z,76.53
2022-11-12T22:35:25.110Z,72.43
2022-11-12T22:39:06.335Z,78.53
2022-11-12T22:42:48.153Z,70.45
2022-11-12T22:46:30.637Z,63.95
2022-11-12T22:50:11.532Z,56.83
2022-11-12T22:53:55.051Z,57.40
2022-11-12T22:57:35.465Z,59.35
2022-11-12T23:01:23.355Z,58.13
2022-11-12T23:05:04.037Z,55.40
2022-11-12T23:08:45.422Z,59.30
2022-11-12T23:16:13.742Z,50.53
2022-11-12T23:19:55.484Z,58.53
2022-11-12T23:23:36.466Z,50.17
2022-11-12T23:27:16.699Z,47.53
2022-11-12T23:30:57.091Z,45.75
2022-11-12T23:34:37.208Z,49.55
2022-11-12T23:38:18.913Z,40.83
2022-11-12T23:41:59.351Z,37.27
2022-11-12T23:45:39.851Z,36.53
2022-11-12T23:49:20.338Z,36.43
2022-11-12T23:53:00.745Z,31.30
2022-11-12T23:56:42.301Z,30.15
